createdAt,value
2023-01-29T16:31:40.789Z,20.15
2023-01-29T16:34:10.241Z,20.15
2023-01-29T16:36:36.532Z,18.58
2023-01-29T16:39:06.373Z,19.88
2023-01-29T16:41:38.743Z,18.70
2023-01-29T16:44:16.731Z,19.52
2023-01-29T16:46:47.540Z,18.13
2023-01-29T16:49:26.131Z,17.45
2023-01-29T16:51:53.159Z,18.08
2023-01-29T16:54:23.994Z,18.05
2023-01-29T16:56:55.435Z,18.45
2023-01-29T16:59:29.660Z,17.27
2023-01-29T17:01:56.117Z,17.60
2023-01-29T17:04:22.665Z,17.35
2023-01-29T17:06:54.333Z,18.17
2023-01-29T17:09:43.520Z,15.95
2023-01-29T17:12:18.787Z,16.67
2023-01-29T17:14:53.899Z,16.55
2023-01-29T17:17:20.174Z,17.27
2023-01-29T17:19:46.347Z,16.65
2023-01-29T17:22:15.359Z,16.77
2023-01-29T17:24:42.297Z,17.05
2023-01-29T17:27:17.969Z,16.27
2023-01-29T17:29:44.195Z,16.42
2023-01-29T17:32:10.579Z,15.85
2023-01-29T17:34:36.800Z,14.82
2023-01-29T17:37:02.912Z,15.50
2023-01-29T17:39:29.109Z,16.00
2023-01-29T17:41:57.897Z,15.70
2023-01-29T17:44:26.456Z,14.57
2023-01-29T17:46:52.567Z,16.35
2023-01-29T17:49:25.552Z,14.95
2023-01-29T17:51:53.244Z,14.40
2023-01-29T17:54:20.164Z,14.77
2023-01-29T17:56:46.760Z,14.73
2023-01-29T17:59:20.913Z,13.52
2023-01-29T18:01:47.631Z,13.60
2023-01-29T18:04:14.187Z,15.00
2023-01-29T18:06:41.849Z,14.82
2023-01-29T18:09:08.139Z,14.52
2023-01-29T18:11:38.059Z,14.15
2023-01-29T18:14:13.813Z,14.35
2023-01-29T18:16:42.312Z,14.38
2023-01-29T18:19:14.956Z,14.88
2023-01-29T18:21:41.325Z,14.02
2023-01-29T18:24:08.278Z,13.35
2023-01-29T18:26:36.012Z,12.60
2023-01-29T18:29:02.440Z,13.77
2023-01-29T18:31:28.668Z,13.25
2023-01-29T18:33:54.887Z,13.15
2023-01-29T18:36:21.025Z,13.35
2023-01-29T18:38:47.206Z,13.23
2023-01-29T18:41:13.349Z,13.15
2023-01-29T18:43:40.912Z,13.02
2023-01-29T18:46:08.291Z,12.55
2023-01-29T18:48:35.152Z,13.38
2023-01-29T18:51:01.437Z,12.57
2023-01-29T18:53:27.722Z,12.32
2023-01-29T18:55:58.825Z,13.30
2023-01-29T18:58:33.816Z,12.55
2023-01-29T19:01:09.083Z,12.90
2023-01-29T19:03:36.317Z,13.30
2023-01-29T19:06:03.476Z,12.40
2023-01-29T19:08:30.423Z,12.32
2023-01-29T19:10:57.941Z,12.48
2023-01-29T19:13:24.114Z,13.07
2023-01-29T19:15:50.275Z,11.80
2023-01-29T19:18:16.791Z,14.00
2023-01-29T19:20:43.043Z,13.50
2023-01-29T19:23:09.678Z,12.82
2023-01-29T19:25:39.828Z,13.73
2023-01-29T19:28:07.332Z,14.13
2023-01-29T19:30:33.844Z,13.15
2023-01-29T19:33:00.113Z,13.55
2023-01-29T19:35:26.433Z,13.50
2023-01-29T19:37:52.573Z,14.15
2023-01-29T19:40:19.091Z,13.70
2023-01-29T19:42:45.214Z,13.27
2023-01-29T19:45:11.570Z,12.98
2023-01-29T19:47:42.213Z,12.93
2023-01-29T19:50:10.571Z,12.63
2023-01-29T19:52:52.284Z,13.30
2023-01-29T19:55:20.564Z,13.45
2023-01-29T19:57:47.197Z,13.15
2023-01-29T20:00:15.601Z,12.02
2023-01-29T20:02:41.810Z,11.73
2023-01-29T20:05:10.069Z,13.20
2023-01-29T20:07:36.799Z,11.45
2023-01-29T20:10:03.613Z,10.07
2023-01-29T20:12:30.328Z,10.70
2023-01-29T20:14:56.856Z,9.82
2023-01-29T20:17:23.070Z,10.15
2023-01-29T20:19:49.215Z,11.30
2023-01-29T20:22:15.339Z,10.57
2023-01-29T20:24:42.687Z,10.25
2023-01-29T20:27:10.836Z,10.35
2023-01-29T20:32:05.372Z,10.23
2023-01-29T20:34:31.958Z,10.00
2023-01-29T20:36:58.181Z,10.32
2023-01-29T20:39:24.303Z,9.98
2023-01-29T20:41:50.646Z,10.20
2023-01-29T20:44:17.020Z,8.70
2023-01-29T20:46:43.240Z,9.27
2023-01-29T20:49:09.531Z,9.85
2023-01-29T20:51:35.711Z,9.60
2023-01-29T20:54:01.849Z,9.07
2023-01-29T20:56:37.412Z,9.27
2023-01-29T20:59:08.686Z,9.57
2023-01-29T21:01:35.194Z,9.10
2023-01-29T21:04:01.546Z,8.43
2023-01-29T21:06:29.639Z,8.93
2023-01-29T21:08:55.902Z,9.27
2023-01-29T21:11:22.472Z,8.70
2023-01-29T21:13:48.636Z,9.07
2023-01-29T21:16:14.863Z,8.68
2023-01-29T21:18:41.078Z,9.05
2023-01-29T21:21:07.280Z,8.20
2023-01-29T21:23:33.466Z,9.05
2023-01-29T21:26:04.409Z,9.45
2023-01-29T21:28:30.601Z,9.27
2023-01-29T21:31:08.538Z,10.23
2023-01-29T21:33:35.117Z,8.27
2023-01-29T21:36:01.957Z,8.38
2023-01-29T21:38:28.440Z,9.20
2023-01-29T21:41:02.458Z,9.35
2023-01-29T21:43:28.885Z,8.38
2023-01-29T21:45:56.830Z,8.38
2023-01-29T21:48:23.497Z,8.50
2023-01-29T21:50:49.844Z,8.93
2023-01-29T21:53:16.036Z,7.78
2023-01-29T21:55:42.483Z,8.50
2023-01-29T21:58:08.650Z,7.80
2023-01-29T22:00:35.031Z,8.30
2023-01-29T22:03:01.236Z,7.57
2023-01-29T22:05:29.198Z,7.85
2023-01-29T22:07:55.907Z,7.93
2023-01-29T22:10:22.534Z,8.45
2023-01-29T22:12:48.907Z,7.90
2023-01-29T22:15:15.668Z,7.25
2023-01-29T22:17:42.476Z,7.35
2023-01-29T22:20:13.802Z,6.47
2023-01-29T22:22:40.460Z,6.43
2023-01-29T22:25:06.828Z,6.40
2023-01-29T22:27:33.907Z,6.50
2023-01-29T22:30:00.282Z,6.18
2023-01-29T22:32:26.527Z,5.55
2023-01-29T22:34:52.673Z,5.90
2023-01-29T22:37:18.846Z,5.78
2023-01-29T22:39:46.060Z,5.55
2023-01-29T22:42:12.193Z,5.75
2023-01-29T22:44:38.378Z,5.95
2023-01-29T22:47:04.525Z,5.25
2023-01-29T22:49:31.529Z,6.13
2023-01-29T22:52:10.193Z,5.05
2023-01-29T22:54:40.599Z,5.40
2023-01-29T22:57:07.110Z,5.20
2023-01-29T22:59:33.786Z,4.65
2023-01-29T23:02:00.089Z,4.97
2023-01-29T23:04:26.487Z,5.22
2023-01-29T23:06:52.628Z,4.90
2023-01-29T23:09:18.780Z,5.13
2023-01-29T23:11:44.946Z,4.70
2023-01-29T23:14:11.060Z,5.00
2023-01-29T23:16:37.196Z,5.32
2023-01-29T23:19:03.360Z,4.80
2023-01-29T23:21:29.563Z,5.50
2023-01-29T23:23:58.391Z,4.63
2023-01-29T23:26:43.902Z,5.00
2023-01-29T23:29:10.384Z,5.50
2023-01-29T23:31:36.608Z,5.00
2023-01-29T23:34:02.844Z,4.50
2023-01-29T23:36:28.987Z,4.43
2023-01-29T23:38:55.200Z,4.22
2023-01-29T23:41:21.531Z,4.88
2023-01-29T23:43:47.648Z,4.63
2023-01-29T23:46:13.865Z,4.50
2023-01-29T23:48:40.065Z,5.03
2023-01-29T23:51:06.346Z,4.63
2023-01-29T23:53:32.491Z,4.32
2023-01-29T23:56:04.104Z,5.25
2023-01-29T23:58:31.236Z,4.90
